Time;durP1;ratioP1;P1;durP2;ratioP2;P2;SDS_P1;SDS_P2;PMS_P1;PMS_P2;Temp;Humidity;BMP_temperature;BMP_pressure;BME280_temperature;BME280_humidity;BME280_pressure;Samples;Min_cycle;Max_cycle;Signal;HPM_P1;HPM_P2
2021/03/14 00:01:18;;;;;;;19.48;2.35;;;5.90;99.10;;;;;;5088861;28;20483;-65
2021/03/14 00:03:43;;;;;;;15.85;2.05;;;5.90;99.10;;;;;;5082593;28;20060;-65
2021/03/14 00:06:09;;;;;;;19.98;2.97;;;5.90;99.20;;;;;;5085487;28;20071;-65
2021/03/14 00:08:35;;;;;;;13.98;1.75;;;5.90;99.00;;;;;;5087909;28;20040;-65
2021/03/14 00:11:05;;;;;;;14.60;2.13;;;5.90;99.00;;;;;;5053699;28;20044;-65
2021/03/14 00:13:33;;;;;;;15.75;1.65;;;5.80;98.90;;;;;;5087361;28;20035;-65
2021/03/14 00:16:01;;;;;;;16.35;1.63;;;5.80;98.90;;;;;;5086865;28;20048;-65
2021/03/14 00:18:31;;;;;;;17.33;2.80;;;5.80;99.00;;;;;;5089600;28;20040;-65
2021/03/14 00:20:58;;;;;;;16.35;1.88;;;5.80;99.10;;;;;;5089431;28;20046;-65
2021/03/14 00:23:24;;;;;;;20.15;2.22;;;5.80;98.80;;;;;;5087949;28;20039;-65
2021/03/14 00:25:49;;;;;;;14.73;1.90;;;5.80;98.80;;;;;;5089071;28;20044;-65
2021/03/14 00:28:17;;;;;;;14.88;1.48;;;5.70;98.60;;;;;;5067908;28;20044;-65
2021/03/14 00:30:43;;;;;;;14.25;2.67;;;5.70;98.60;;;;;;5089248;28;20040;-65
2021/03/14 00:33:09;;;;;;;10.07;1.23;;;5.70;98.70;;;;;;5089367;28;20102;-65
2021/03/14 00:35:34;;;;;;;17.60;1.95;;;5.70;98.70;;;;;;5091115;28;20115;-65
2021/03/14 00:38:00;;;;;;;12.10;1.42;;;5.70;98.70;;;;;;5091907;28;20040;-64
2021/03/14 00:40:27;;;;;;;8.90;2.08;;;5.60;98.60;;;;;;5088707;28;20032;-65
2021/03/14 00:42:55;;;;;;;10.68;2.10;;;5.70;98.70;;;;;;5091020;28;20043;-65
2021/03/14 00:45:21;;;;;;;13.43;1.77;;;5.60;98.70;;;;;;5093930;28;20078;-65
2021/03/14 00:47:47;;;;;;;16.70;1.52;;;5.60;98.60;;;;;;5091396;28;20067;-65
2021/03/14 00:50:13;;;;;;;12.63;1.58;;;5.60;98.90;;;;;;5085693;28;20075;-65
2021/03/14 00:52:39;;;;;;;11.75;1.48;;;5.60;99.00;;;;;;5090347;28;20031;-65
2021/03/14 00:55:05;;;;;;;17.50;2.05;;;5.50;99.00;;;;;;5087704;28;20036;-65
2021/03/14 00:57:32;;;;;;;11.00;1.88;;;5.50;99.20;;;;;;5092452;28;20028;-65
2021/03/14 00:59:57;;;;;;;18.00;1.60;;;5.50;99.30;;;;;;5089479;28;20221;-65
2021/03/14 01:02:23;;;;;;;12.30;1.95;;;5.50;99.30;;;;;;5092417;28;20539;-65
2021/03/14 01:04:49;;;;;;;10.88;1.65;;;5.50;99.50;;;;;;5092184;28;20440;-65
2021/03/14 01:07:14;;;;;;;14.40;1.88;;;5.50;99.50;;;;;;5089777;28;20046;-65
2021/03/14 01:09:40;;;;;;;11.38;2.00;;;5.50;99.50;;;;;;5090094;28;20770;-65
2021/03/14 01:12:07;;;;;;;15.45;2.10;;;5.50;99.70;;;;;;5088355;28;20446;-65
2021/03/14 01:14:33;;;;;;;18.25;2.38;;;5.50;99.90;;;;;;5092232;28;20118;-65
2021/03/14 01:16:59;;;;;;;18.25;1.88;;;5.50;99.80;;;;;;5090575;28;20036;-65
2021/03/14 01:19:25;;;;;;;22.15;2.78;;;5.50;99.90;;;;;;5073269;28;20536;-65
2021/03/14 01:21:50;;;;;;;20.92;2.97;;;5.50;99.90;;;;;;5088587;28;20525;-65
2021/03/14 01:24:16;;;;;;;22.40;2.17;;;5.50;99.90;;;;;;5088904;28;20079;-64
2021/03/14 01:26:42;;;;;;;19.15;2.22;;;5.50;99.90;;;;;;5089759;28;20042;-65
2021/03/14 01:29:08;;;;;;;11.70;2.50;;;5.50;99.90;;;;;;5090452;28;20043;-65
2021/03/14 01:31:33;;;;;;;17.83;1.58;;;5.50;99.90;;;;;;5089916;28;20044;-65
2021/03/14 01:33:59;;;;;;;17.90;3.05;;;5.50;99.90;;;;;;5073760;28;20384;-65
2021/03/14 01:36:24;;;;;;;16.20;2.22;;;5.40;99.90;;;;;;5089414;28;20483;-65
2021/03/14 01:38:50;;;;;;;17.50;2.67;;;5.40;99.90;;;;;;5092348;28;20440;-65
2021/03/14 01:41:16;;;;;;;14.50;2.30;;;5.40;99.90;;;;;;5088009;28;20554;-65
2021/03/14 01:43:42;;;;;;;21.70;2.65;;;5.40;99.90;;;;;;5091519;28;20047;-65
2021/03/14 01:46:09;;;;;;;20.70;2.15;;;5.40;99.90;;;;;;5090076;28;20118;-65
2021/03/14 01:48:36;;;;;;;18.55;2.78;;;5.50;99.90;;;;;;5091040;28;20097;-65
2021/03/14 01:51:03;;;;;;;17.55;3.17;;;5.50;99.90;;;;;;5092087;28;20035;-65
2021/03/14 01:53:30;;;;;;;18.63;2.63;;;5.50;99.90;;;;;;5090013;28;20036;-64
2021/03/14 01:55:57;;;;;;;15.18;2.30;;;5.50;99.90;;;;;;5086039;28;20047;-64
2021/03/14 01:58:23;;;;;;;18.20;2.75;;;5.50;99.90;;;;;;5089820;28;20036;-65
2021/03/14 02:00:54;;;;;;;18.00;2.70;;;5.60;99.90;;;;;;5091014;28;20036;-65
2021/03/14 02:03:23;;;;;;;16.73;2.80;;;5.50;99.90;;;;;;5082918;28;20036;-64
2021/03/14 02:05:49;;;;;;;24.60;2.53;;;5.60;99.90;;;;;;5088048;28;20032;-65
2021/03/14 02:08:15;;;;;;;20.35;3.20;;;5.50;99.90;;;;;;5090259;28;20044;-64
2021/03/14 02:10:42;;;;;;;16.38;2.55;;;5.50;99.90;;;;;;5086412;28;20046;-65
2021/03/14 02:13:16;;;;;;;26.65;3.28;;;5.50;99.90;;;;;;5089231;28;20040;-65
2021/03/14 02:16:13;;;;;;;20.90;2.67;;;5.50;99.90;;;;;;5088552;28;20052;-65
2021/03/14 02:18:44;;;;;;;20.13;3.05;;;5.60;99.90;;;;;;5091556;28;20129;-65
2021/03/14 02:21:11;;;;;;;20.60;5.13;;;5.60;99.90;;;;;;5087914;28;20432;-64
2021/03/14 02:23:51;;;;;;;19.45;2.85;;;5.60;99.90;;;;;;5090913;28;20028;-64
2021/03/14 02:26:42;;;;;;;18.08;2.88;;;5.60;99.90;;;;;;5084243;28;20078;-65
2021/03/14 02:29:14;;;;;;;17.67;3.33;;;5.60;99.90;;;;;;5070518;28;20032;-65
2021/03/14 02:31:42;;;;;;;18.95;3.03;;;5.60;99.90;;;;;;5083475;28;20036;-65
2021/03/14 02:34:12;;;;;;;21.55;2.72;;;5.60;99.90;;;;;;5091099;28;20406;-64
2021/03/14 02:36:39;;;;;;;20.85;3.25;;;5.60;99.90;;;;;;5090186;28;20101;-65
2021/03/14 02:39:09;;;;;;;23.40;3.42;;;5.60;99.90;;;;;;5089692;28;20039;-65
2021/03/14 02:41:35;;;;;;;27.05;3.38;;;5.60;99.90;;;;;;5084495;28;20407;-65
2021/03/14 02:44:01;;;;;;;17.45;2.38;;;5.60;99.90;;;;;;5085572;28;20388;-65
2021/03/14 02:46:29;;;;;;;21.33;2.53;;;5.60;99.90;;;;;;5087311;28;20056;-65
2021/03/14 02:48:56;;;;;;;23.40;2.80;;;5.60;99.90;;;;;;5089211;28;20085;-65
2021/03/14 02:51:22;;;;;;;19.27;2.85;;;5.60;99.90;;;;;;5090010;28;20044;-65
2021/03/14 02:53:49;;;;;;;23.50;4.85;;;5.60;99.90;;;;;;5090479;28;20593;-65
2021/03/14 02:56:14;;;;;;;23.17;3.35;;;5.60;99.90;;;;;;5085381;28;20039;-64
2021/03/14 02:58:42;;;;;;;24.15;3.25;;;5.60;99.90;;;;;;5089428;28;20448;-65
2021/03/14 03:01:09;;;;;;;21.55;3.22;;;5.60;99.90;;;;;;5089257;28;20036;-64
2021/03/14 03:03:36;;;;;;;16.48;2.60;;;5.60;99.90;;;;;;5088624;28;20055;-65
2021/03/14 03:06:02;;;;;;;25.77;3.28;;;5.60;99.90;;;;;;5088169;28;20636;-65
2021/03/14 03:08:33;;;;;;;22.17;3.10;;;5.60;99.90;;;;;;5090627;28;20139;-64
2021/03/14 03:11:03;;;;;;;17.67;3.22;;;5.60;99.90;;;;;;5086937;28;20036;-65
2021/03/14 03:13:32;;;;;;;28.42;3.85;;;5.50;99.90;;;;;;5085483;28;20043;-65
2021/03/14 03:15:59;;;;;;;19.98;2.70;;;5.50;99.90;;;;;;5087913;28;20052;-64
2021/03/14 03:18:25;;;;;;;26.73;3.10;;;5.50;99.90;;;;;;5090527;28;20444;-64
2021/03/14 03:20:53;;;;;;;28.63;3.10;;;5.40;99.90;;;;;;5089702;28;20082;-64
2021/03/14 03:23:18;;;;;;;25.98;3.83;;;5.40;99.90;;;;;;5069965;28;20748;-64
2021/03/14 03:25:44;;;;;;;26.90;3.75;;;5.30;99.90;;;;;;5088780;28;20082;-65
2021/03/14 03:28:14;;;;;;;21.88;3.28;;;5.30;99.90;;;;;;5088034;28;20139;-65
2021/03/14 03:30:40;;;;;;;27.10;3.85;;;5.30;99.90;;;;;;5087538;28;20032;-65
2021/03/14 03:33:06;;;;;;;24.95;3.13;;;5.30;99.90;;;;;;5085495;28;20039;-64
2021/03/14 03:35:32;;;;;;;27.20;4.60;;;5.20;99.90;;;;;;5089868;28;20039;-65
2021/03/14 03:37:58;;;;;;;31.90;3.33;;;5.20;99.90;;;;;;5086917;28;20036;-65
2021/03/14 03:40:27;;;;;;;20.38;3.75;;;5.20;99.90;;;;;;5089174;28;20040;-65
2021/03/14 03:42:59;;;;;;;29.52;3.95;;;5.20;99.90;;;;;;5084846;28;20056;-64
2021/03/14 03:45:27;;;;;;;24.58;3.42;;;5.10;99.90;;;;;;5070763;28;20036;-65
2021/03/14 03:47:57;;;;;;;21.83;3.47;;;5.10;99.90;;;;;;5088058;28;20132;-64
2021/03/14 03:50:23;;;;;;;24.98;3.25;;;5.10;99.90;;;;;;5089710;28;20085;-65
2021/03/14 03:52:52;;;;;;;19.33;2.88;;;5.10;99.90;;;;;;5086058;28;20123;-65
2021/03/14 03:55:19;;;;;;;24.08;3.33;;;5.10;99.90;;;;;;5087973;28;20185;-64
2021/03/14 03:57:45;;;;;;;28.83;4.03;;;5.10;99.90;;;;;;5088060;28;20036;-65
2021/03/14 04:00:16;;;;;;;23.73;2.97;;;5.10;99.90;;;;;;5088752;28;20038;-65
2021/03/14 04:02:43;;;;;;;21.17;3.97;;;5.20;99.90;;;;;;5086443;28;20118;-65
2021/03/14 04:05:10;;;;;;;12.63;2.15;;;5.20;99.90;;;;;;5086659;28;20039;-65
2021/03/14 04:07:42;;;;;;;24.65;3.42;;;5.20;99.90;;;;;;5086931;28;20040;-64
2021/03/14 04:10:12;;;;;;;21.08;3.35;;;5.20;99.90;;;;;;5087906;28;20032;-65
2021/03/14 04:12:40;;;;;;;17.30;2.40;;;5.20;99.90;;;;;;5083860;28;20131;-64
2021/03/14 04:15:09;;;;;;;16.55;2.78;;;5.20;99.90;;;;;;5087993;28;20044;-65
2021/03/14 04:17:37;;;;;;;22.27;2.83;;;5.20;99.90;;;;;;5087100;28;20039;-65
2021/03/14 04:20:10;;;;;;;15.32;2.70;;;5.20;99.90;;;;;;5086916;28;20102;-65
2021/03/14 04:22:38;;;;;;;17.77;2.85;;;5.20;99.90;;;;;;5085137;28;20064;-65
2021/03/14 04:25:06;;;;;;;19.58;2.50;;;5.30;99.90;;;;;;5085181;28;20036;-65
2021/03/14 04:27:32;;;;;;;10.88;2.30;;;5.30;99.90;;;;;;5087419;28;20032;-65
2021/03/14 04:30:01;;;;;;;13.07;2.05;;;5.30;99.90;;;;;;5087365;28;20513;-64
2021/03/14 04:32:26;;;;;;;13.50;2.15;;;5.30;99.90;;;;;;5085735;28;20043;-65
2021/03/14 04:34:52;;;;;;;14.50;2.20;;;5.30;99.90;;;;;;5085014;28;20048;-65
2021/03/14 04:37:20;;;;;;;10.85;1.63;;;5.30;99.90;;;;;;5086903;28;20069;-65
2021/03/14 04:39:46;;;;;;;17.88;2.30;;;5.30;99.90;;;;;;5086500;28;20044;-65
2021/03/14 04:42:13;;;;;;;20.80;2.55;;;5.30;99.90;;;;;;5087995;28;20105;-65
2021/03/14 04:44:40;;;;;;;16.55;2.45;;;5.30;99.90;;;;;;5087633;28;20044;-65
2021/03/14 04:47:06;;;;;;;16.13;2.20;;;5.30;99.90;;;;;;5087975;28;20070;-65
2021/03/14 04:49:33;;;;;;;25.83;2.53;;;5.30;99.90;;;;;;5086964;28;20391;-65
2021/03/14 04:52:01;;;;;;;15.73;1.70;;;5.30;99.90;;;;;;5086502;28;20110;-64
2021/03/14 04:54:28;;;;;;;13.10;2.63;;;5.30;99.90;;;;;;5086821;28;20102;-64
2021/03/14 04:56:54;;;;;;;16.13;2.55;;;5.20;99.90;;;;;;5088453;28;20058;-65
2021/03/14 04:59:22;;;;;;;13.07;2.22;;;5.30;99.90;;;;;;5088316;28;20036;-65
2021/03/14 05:01:49;;;;;;;18.80;2.65;;;5.30;99.90;;;;;;5084934;28;20078;-65
2021/03/14 05:04:19;;;;;;;15.23;2.33;;;5.20;99.90;;;;;;5086522;28;21159;-65
2021/03/14 05:06:45;;;;;;;21.73;2.33;;;5.20;99.90;;;;;;5087803;28;20115;-64
2021/03/14 05:09:16;;;;;;;13.82;2.00;;;5.20;99.90;;;;;;5088043;28;20036;-65
2021/03/14 05:11:46;;;;;;;18.30;3.65;;;5.20;99.90;;;;;;5087538;28;20479;-65
2021/03/14 05:14:13;;;;;;;16.38;2.50;;;5.20;99.90;;;;;;5086679;28;20105;-64
2021/03/14 05:16:41;;;;;;;15.02;2.35;;;5.20;99.90;;;;;;5085309;28;20044;-64
2021/03/14 05:19:08;;;;;;;15.57;2.80;;;5.20;99.90;;;;;;5089351;28;20390;-65
2021/03/14 05:21:34;;;;;;;22.38;2.50;;;5.10;99.90;;;;;;5090435;28;20036;-65
2021/03/14 05:24:01;;;;;;;15.82;2.13;;;5.10;99.90;;;;;;5091648;28;20118;-65
2021/03/14 05:26:28;;;;;;;15.15;2.25;;;5.10;99.90;;;;;;5085846;28;20394;-65
2021/03/14 05:28:56;;;;;;;20.48;2.55;;;5.10;99.90;;;;;;5089709;28;20127;-65
2021/03/14 05:31:32;;;;;;;12.75;1.92;;;5.10;99.90;;;;;;5089261;28;20039;-65
2021/03/14 05:34:00;;;;;;;16.65;2.95;;;5.20;99.90;;;;;;5090577;28;20069;-65
2021/03/14 05:36:27;;;;;;;24.52;2.38;;;5.10;99.90;;;;;;5089800;28;20112;-65
2021/03/14 05:38:54;;;;;;;18.95;3.35;;;5.20;99.90;;;;;;5090206;28;20101;-65
2021/03/14 05:41:20;;;;;;;12.57;1.55;;;5.20;99.90;;;;;;5072574;28;20048;-65
2021/03/14 05:43:47;;;;;;;16.27;2.45;;;5.20;99.90;;;;;;5089480;28;20054;-65
2021/03/14 05:46:14;;;;;;;15.63;2.60;;;5.10;99.90;;;;;;5089778;28;20436;-65
2021/03/14 05:48:45;;;;;;;13.98;2.20;;;5.20;99.90;;;;;;5091368;28;20040;-65
2021/03/14 05:51:19;;;;;;;15.57;2.22;;;5.10;99.90;;;;;;5090403;28;20143;-65
2021/03/14 05:53:48;;;;;;;14.30;1.60;;;5.20;99.90;;;;;;5089413;28;20515;-65
2021/03/14 05:56:14;;;;;;;17.05;2.03;;;5.10;99.90;;;;;;5089927;28;20406;-65
2021/03/14 05:58:40;;;;;;;17.42;2.05;;;5.10;99.90;;;;;;5090977;28;20050;-65
2021/03/14 06:01:11;;;;;;;17.27;2.00;;;5.10;99.90;;;;;;5089357;28;20047;-65
2021/03/14 06:03:37;;;;;;;15.10;3.25;;;5.10;99.90;;;;;;5086333;28;20097;-65
2021/03/14 06:06:07;;;;;;;18.73;2.50;;;5.10;99.90;;;;;;5088076;28;20085;-65
2021/03/14 06:08:33;;;;;;;14.25;2.08;;;5.10;99.90;;;;;;5089638;28;20441;-65
2021/03/14 06:11:01;;;;;;;13.05;1.63;;;5.10;99.90;;;;;;5090777;28;20099;-65
2021/03/14 06:13:28;;;;;;;7.78;1.30;;;5.10;99.90;;;;;;5086906;28;20492;-65
2021/03/14 06:15:53;;;;;;;10.77;1.83;;;5.10;99.90;;;;;;5086365;28;20123;-64
2021/03/14 06:18:20;;;;;;;12.40;1.80;;;5.00;99.90;;;;;;5090287;28;20044;-65
2021/03/14 06:20:46;;;;;;;12.18;1.67;;;5.10;99.90;;;;;;5087334;28;20536;-65
2021/03/14 06:23:14;;;;;;;14.23;2.13;;;5.10;99.90;;;;;;5089901;28;20044;-65
2021/03/14 06:25:42;;;;;;;14.57;1.80;;;5.10;99.90;;;;;;5089369;28;20421;-65
2021/03/14 06:28:08;;;;;;;10.70;1.38;;;5.10;99.90;;;;;;5089604;28;20085;-65
2021/03/14 06:30:34;;;;;;;13.82;1.60;;;5.10;99.90;;;;;;5090700;28;20036;-65
2021/03/14 06:33:05;;;;;;;12.18;1.38;;;5.20;99.90;;;;;;5087383;28;20395;-65
2021/03/14 06:35:57;;;;;;;13.70;1.85;;;5.40;99.90;;;;;;5069395;28;20068;-65
2021/03/14 06:38:32;;;;;;;7.55;1.10;;;5.50;99.90;;;;;;5081857;28;20047;-65
2021/03/14 06:41:07;;;;;;;10.57;1.30;;;5.50;99.90;;;;;;5084526;28;20490;-65
2021/03/14 06:43:40;;;;;;;10.17;1.20;;;5.40;99.90;;;;;;5082795;28;20036;-65
2021/03/14 06:46:24;;;;;;;13.25;1.65;;;5.50;99.90;;;;;;5084251;28;20490;-65
2021/03/14 06:49:13;;;;;;;11.77;1.23;;;5.60;99.90;;;;;;5083841;28;20037;-65
2021/03/14 06:51:59;;;;;;;11.48;1.25;;;5.60;99.90;;;;;;5082220;28;20833;-65
2021/03/14 06:54:27;;;;;;;9.95;2.10;;;5.70;99.90;;;;;;5085817;28;20119;-65
2021/03/14 06:57:11;;;;;;;11.63;1.33;;;5.80;99.90;;;;;;5084883;28;20037;-65
2021/03/14 06:59:38;;;;;;;9.65;1.30;;;5.80;99.90;;;;;;5087002;28;20034;-65
2021/03/14 07:02:13;;;;;;;11.70;2.17;;;6.00;99.80;;;;;;5085022;28;20508;-64
2021/03/14 07:04:42;;;;;;;15.13;1.48;;;6.00;99.70;;;;;;5086468;28;20040;-65
2021/03/14 07:07:27;;;;;;;17.75;3.53;;;6.10;99.40;;;;;;5085636;28;20116;-65
2021/03/14 07:10:00;;;;;;;11.38;1.45;;;6.10;99.40;;;;;;5085378;28;20067;-65
2021/03/14 07:12:38;;;;;;;8.75;1.60;;;6.20;99.50;;;;;;5084844;28;20127;-65
2021/03/14 07:15:16;;;;;;;10.02;1.30;;;6.20;99.50;;;;;;5085337;28;20044;-65
2021/03/14 07:17:49;;;;;;;7.20;1.52;;;6.30;99.50;;;;;;5081226;28;20071;-65
2021/03/14 07:20:27;;;;;;;17.23;1.40;;;6.50;99.40;;;;;;5087382;28;20482;-65
2021/03/14 07:23:13;;;;;;;16.52;1.50;;;6.60;99.50;;;;;;5087287;28;20048;-65
2021/03/14 07:25:45;;;;;;;11.00;1.42;;;6.80;99.10;;;;;;5089224;28;20051;-65
2021/03/14 07:28:12;;;;;;;10.68;1.10;;;6.90;98.90;;;;;;5089344;28;20501;-65
2021/03/14 07:30:38;;;;;;;18.00;1.95;;;6.90;98.60;;;;;;5089179;28;20036;-65
2021/03/14 07:33:05;;;;;;;10.82;1.42;;;6.90;98.50;;;;;;5085656;28;20062;-65
2021/03/14 07:35:31;;;;;;;12.48;1.20;;;6.90;98.40;;;;;;5090813;28;20036;-65
2021/03/14 07:37:59;;;;;;;6.97;1.30;;;6.90;98.40;;;;;;5087479;28;20036;-65
2021/03/14 07:40:28;;;;;;;8.65;1.27;;;6.90;98.40;;;;;;5089390;28;20044;-65
2021/03/14 07:43:00;;;;;;;11.35;1.52;;;7.00;98.50;;;;;;5070661;28;20051;-65
2021/03/14 07:45:26;;;;;;;14.98;1.85;;;7.00;98.80;;;;;;5087214;28;20044;-65
2021/03/14 07:47:53;;;;;;;16.70;1.58;;;7.00;98.60;;;;;;5083724;28;20047;-65
2021/03/14 07:50:26;;;;;;;18.10;2.42;;;7.10;98.70;;;;;;5085702;28;20024;-65
2021/03/14 07:52:57;;;;;;;17.73;2.95;;;7.10;98.90;;;;;;5084168;28;20036;-65
2021/03/14 07:55:24;;;;;;;11.80;2.88;;;7.20;98.80;;;;;;5085551;28;20040;-65
2021/03/14 07:57:54;;;;;;;13.95;1.40;;;7.10;98.90;;;;;;5084926;28;20040;-65
2021/03/14 08:00:22;;;;;;;24.52;2.65;;;7.30;98.90;;;;;;5087198;28;20083;-65
2021/03/14 08:02:56;;;;;;;14.70;2.63;;;7.30;98.30;;;;;;5086463;28;20515;-65
2021/03/14 08:05:40;;;;;;;15.93;2.33;;;7.40;98.40;;;;;;5087804;28;20491;-65
2021/03/14 08:08:11;;;;;;;11.95;2.38;;;7.40;98.30;;;;;;5086464;28;20039;-65
2021/03/14 08:10:44;;;;;;;16.10;2.72;;;7.50;98.50;;;;;;5084123;28;20032;-65
2021/03/14 08:13:16;;;;;;;19.02;2.72;;;7.50;98.70;;;;;;5084327;28;20078;-65
2021/03/14 08:15:42;;;;;;;16.48;2.67;;;7.60;98.70;;;;;;5089812;28;20040;-65
2021/03/14 08:18:41;;;;;;;16.65;2.40;;;7.70;98.70;;;;;;5088359;28;20039;-65
2021/03/14 08:21:27;;;;;;;22.45;4.93;;;7.70;98.60;;;;;;5088785;28;20078;-65
2021/03/14 08:23:57;;;;;;;16.63;3.40;;;7.70;98.70;;;;;;5087849;28;20043;-65
2021/03/14 08:26:34;;;;;;;14.65;2.50;;;7.80;98.70;;;;;;5090737;28;20036;-65
2021/03/14 08:29:09;;;;;;;17.65;3.47;;;7.70;98.40;;;;;;5088809;28;20097;-65
2021/03/14 08:31:52;;;;;;;18.77;3.10;;;7.80;98.70;;;;;;5087380;28;20040;-65
2021/03/14 08:34:39;;;;;;;17.45;2.42;;;8.00;98.70;;;;;;5070450;28;20044;-65
2021/03/14 08:37:21;;;;;;;22.63;3.63;;;8.00;98.40;;;;;;5086312;28;20032;-65
2021/03/14 08:39:47;;;;;;;16.63;3.90;;;8.10;97.80;;;;;;5088414;28;20032;-65
2021/03/14 08:42:13;;;;;;;12.15;1.85;;;8.10;97.80;;;;;;5083889;28;20044;-65
2021/03/14 08:44:46;;;;;;;14.15;2.83;;;8.20;97.90;;;;;;5085055;28;20066;-65
2021/03/14 08:47:13;;;;;;;13.95;2.92;;;8.40;97.60;;;;;;5069466;28;20047;-65
2021/03/14 08:49:50;;;;;;;15.70;2.42;;;8.40;97.30;;;;;;5085327;28;20490;-66
2021/03/14 08:52:17;;;;;;;13.77;3.03;;;8.40;97.20;;;;;;5086243;28;20036;-65
2021/03/14 08:54:54;;;;;;;12.57;2.28;;;8.50;97.30;;;;;;5089146;28;20048;-65
2021/03/14 08:57:20;;;;;;;12.70;1.70;;;8.40;96.50;;;;;;5091523;28;20168;-66
2021/03/14 08:59:54;;;;;;;14.77;2.17;;;8.40;96.10;;;;;;5089620;28;20039;-65
2021/03/14 09:02:22;;;;;;;14.52;2.03;;;8.60;96.50;;;;;;5092053;28;20088;-65
2021/03/14 09:04:48;;;;;;;13.77;2.85;;;8.90;95.10;;;;;;5092260;28;20114;-65
2021/03/14 09:07:15;;;;;;;63.60;5.53;;;9.20;95.90;;;;;;5092577;28;20479;-65
2021/03/14 09:09:42;;;;;;;12.30;2.30;;;9.60;95.90;;;;;;5075071;28;20036;-65
2021/03/14 09:12:14;;;;;;;13.77;2.38;;;9.70;95.60;;;;;;5092100;28;20490;-65
2021/03/14 09:14:41;;;;;;;11.70;1.90;;;9.60;95.00;;;;;;5092443;28;20044;-65
2021/03/14 09:17:19;;;;;;;9.35;1.75;;;9.50;94.90;;;;;;5092710;28;20395;-65
2021/03/14 09:19:48;;;;;;;7.50;1.70;;;9.70;94.30;;;;;;5091680;28;20032;-65
2021/03/14 09:22:25;;;;;;;12.45;2.42;;;9.90;93.00;;;;;;5087952;28;20064;-65
2021/03/14 09:25:03;;;;;;;9.77;1.73;;;9.80;92.70;;;;;;5090102;28;20609;-65
2021/03/14 09:27:40;;;;;;;12.60;2.45;;;9.70;93.70;;;;;;5092299;28;20052;-65
2021/03/14 09:30:05;;;;;;;14.13;1.80;;;9.70;93.60;;;;;;5091830;28;20043;-65
2021/03/14 09:32:41;;;;;;;9.65;1.58;;;9.60;93.50;;;;;;5091486;28;20028;-65
2021/03/14 09:35:22;;;;;;;13.93;1.85;;;9.60;93.80;;;;;;5092357;28;20177;-65
2021/03/14 09:37:52;;;;;;;11.65;1.60;;;9.70;93.80;;;;;;5087641;28;20069;-65
2021/03/14 09:40:22;;;;;;;8.38;1.63;;;9.70;93.80;;;;;;5073669;28;20028;-65
2021/03/14 09:42:51;;;;;;;10.35;1.52;;;9.50;93.50;;;;;;5089633;28;20118;-65
2021/03/14 09:45:19;;;;;;;11.15;2.10;;;9.40;93.70;;;;;;5072021;28;20127;-65
2021/03/14 09:48:11;;;;;;;12.82;1.25;;;9.20;93.10;;;;;;5069086;28;20115;-65
2021/03/14 09:51:01;;;;;;;9.65;1.13;;;9.00;93.30;;;;;;5091800;28;20369;-65
2021/03/14 09:53:36;;;;;;;7.43;1.98;;;8.80;93.70;;;;;;5080820;28;20032;-65
2021/03/14 09:56:06;;;;;;;8.90;1.58;;;8.70;94.40;;;;;;5092487;28;20386;-65
2021/03/14 09:58:32;;;;;;;12.45;1.77;;;8.90;95.30;;;;;;5086929;28;20556;-65
2021/03/14 10:00:59;;;;;;;14.70;2.97;;;9.00;95.40;;;;;;5086612;28;20036;-64
2021/03/14 10:03:30;;;;;;;9.68;1.33;;;9.10;95.50;;;;;;5085799;28;20050;-64
2021/03/14 10:05:58;;;;;;;12.27;1.80;;;9.40;95.20;;;;;;5087539;28;20036;-64
2021/03/14 10:08:32;;;;;;;11.27;1.30;;;9.60;94.70;;;;;;5084057;28;20436;-64
2021/03/14 10:11:04;;;;;;;7.57;1.42;;;9.40;93.70;;;;;;5087810;28;20046;-64
2021/03/14 10:13:30;;;;;;;10.55;1.42;;;9.30;93.90;;;;;;5085154;28;20571;-64
2021/03/14 10:15:58;;;;;;;5.80;0.80;;;9.30;94.10;;;;;;5082334;28;20121;-64
2021/03/14 10:18:26;;;;;;;8.88;1.30;;;9.30;94.30;;;;;;5085253;28;20051;-64
2021/03/14 10:21:12;;;;;;;5.55;1.05;;;9.40;94.30;;;;;;5085401;28;20071;-64
2021/03/14 10:23:39;;;;;;;10.80;1.45;;;9.60;94.40;;;;;;5072181;28;20495;-64
2021/03/14 10:26:13;;;;;;;6.63;1.00;;;9.70;93.70;;;;;;5083109;28;20048;-64
2021/03/14 10:28:40;;;;;;;7.43;1.15;;;9.90;94.00;;;;;;5081197;28;20107;-64
2021/03/14 10:31:08;;;;;;;8.80;1.63;;;10.10;93.40;;;;;;5084521;28;20047;-64
2021/03/14 10:33:36;;;;;;;9.07;1.40;;;10.40;93.30;;;;;;5084519;28;20066;-64
2021/03/14 10:36:09;;;;;;;6.03;0.95;;;10.50;93.20;;;;;;5084237;28;20514;-64
2021/03/14 10:38:46;;;;;;;8.20;1.23;;;10.70;92.50;;;;;;5088282;28;20141;-64
2021/03/14 10:41:19;;;;;;;7.70;0.80;;;10.80;92.10;;;;;;5087958;28;20394;-64
2021/03/14 10:43:53;;;;;;;7.68;0.98;;;10.80;90.60;;;;;;5083725;28;20473;-65
2021/03/14 10:46:39;;;;;;;7.68;0.80;;;10.80;90.80;;;;;;5084776;28;20054;-64
2021/03/14 10:49:25;;;;;;;5.18;0.73;;;10.70;90.50;;;;;;5085658;28;20039;-65
2021/03/14 10:51:58;;;;;;;7.30;1.27;;;10.70;90.60;;;;;;5085850;28;20044;-64
2021/03/14 10:54:34;;;;;;;9.68;1.20;;;10.90;91.90;;;;;;5085413;28;20039;-64
2021/03/14 10:57:01;;;;;;;4.82;1.10;;;11.10;91.70;;;;;;5084950;28;20051;-64
2021/03/14 10:59:29;;;;;;;8.43;1.30;;;11.20;91.20;;;;;;5082705;28;20063;-64
2021/03/14 11:02:00;;;;;;;7.82;1.00;;;11.40;92.00;;;;;;5084999;28;20032;-64
2021/03/14 11:04:29;;;;;;;9.95;1.13;;;11.60;91.90;;;;;;5084196;28;20137;-65
2021/03/14 11:06:56;;;;;;;5.45;0.93;;;11.80;92.00;;;;;;5083167;28;20105;-64
2021/03/14 11:09:24;;;;;;;4.88;0.73;;;11.90;91.10;;;;;;5083248;28;20036;-65
2021/03/14 11:11:51;;;;;;;3.67;0.40;;;11.80;87.00;;;;;;5084903;28;20032;-65
2021/03/14 11:14:26;;;;;;;5.57;0.63;;;11.90;88.20;;;;;;5085412;28;20036;-65
2021/03/14 11:17:09;;;;;;;6.22;0.75;;;11.80;84.50;;;;;;5080065;28;20109;-65
2021/03/14 11:19:37;;;;;;;7.22;0.75;;;11.80;88.70;;;;;;5074622;28;20042;-65
2021/03/14 11:22:04;;;;;;;5.13;1.30;;;11.80;88.20;;;;;;5073173;28;20048;-65
2021/03/14 11:24:30;;;;;;;4.50;0.73;;;11.70;87.50;;;;;;5071197;28;20105;-65
2021/03/14 11:26:56;;;;;;;5.60;0.80;;;11.40;86.10;;;;;;5075823;28;20441;-65
2021/03/14 11:29:22;;;;;;;3.90;0.63;;;11.30;86.20;;;;;;5070764;28;20043;-65
2021/03/14 11:31:48;;;;;;;5.10;1.48;;;11.20;87.70;;;;;;5071047;28;20051;-65
2021/03/14 11:34:13;;;;;;;4.85;0.57;;;11.30;87.50;;;;;;5072791;28;20055;-65
2021/03/14 11:36:39;;;;;;;3.97;0.60;;;11.30;89.70;;;;;;5070402;28;20060;-65
2021/03/14 11:39:05;;;;;;;5.10;1.00;;;11.50;90.20;;;;;;5071983;28;21617;-64
2021/03/14 11:41:32;;;;;;;11.43;1.02;;;11.60;86.40;;;;;;5071074;28;21058;-65
2021/03/14 11:43:59;;;;;;;5.32;0.70;;;11.50;84.40;;;;;;5068619;28;20040;-64
2021/03/14 11:46:25;;;;;;;6.38;1.08;;;11.40;85.90;;;;;;5073251;28;20068;-65
2021/03/14 11:48:51;;;;;;;3.88;0.52;;;11.40;87.80;;;;;;5085640;28;20047;-65
2021/03/14 11:51:17;;;;;;;7.75;0.80;;;11.20;85.30;;;;;;5064126;28;20051;-65
2021/03/14 11:53:43;;;;;;;4.47;1.20;;;11.00;86.90;;;;;;5084125;28;20032;-65
2021/03/14 11:56:09;;;;;;;5.88;0.95;;;11.00;88.00;;;;;;5080923;28;20044;-65
2021/03/14 11:58:35;;;;;;;9.88;1.00;;;10.80;87.40;;;;;;5084978;28;20043;-65
2021/03/14 12:01:01;;;;;;;8.27;1.20;;;10.70;88.70;;;;;;5083287;28;20112;-65
2021/03/14 12:03:26;;;;;;;6.70;1.30;;;10.50;88.50;;;;;;5083587;28;20041;-65
2021/03/14 12:05:52;;;;;;;7.18;1.08;;;10.40;90.20;;;;;;5079800;28;20036;-65
2021/03/14 12:08:18;;;;;;;5.53;1.10;;;10.40;90.60;;;;;;5082358;28;20914;-65
2021/03/14 12:10:44;;;;;;;7.82;1.33;;;10.40;90.20;;;;;;5082508;28;20459;-65
2021/03/14 12:13:09;;;;;;;9.18;1.75;;;10.40;88.90;;;;;;5081715;28;20411;-65
2021/03/14 12:15:35;;;;;;;11.05;1.67;;;10.40;88.60;;;;;;5084481;28;20044;-65
2021/03/14 12:18:00;;;;;;;8.45;1.02;;;10.40;90.70;;;;;;5083982;28;20527;-65
2021/03/14 12:20:26;;;;;;;10.60;1.38;;;10.60;91.10;;;;;;5089821;28;20513;-65
2021/03/14 12:22:52;;;;;;;8.25;1.77;;;10.80;90.50;;;;;;5086783;28;20055;-65
2021/03/14 12:25:20;;;;;;;7.43;1.02;;;11.00;85.60;;;;;;5086488;28;20032;-65
2021/03/14 12:27:46;;;;;;;11.20;1.80;;;11.00;87.00;;;;;;5089540;28;20135;-65
2021/03/14 12:30:12;;;;;;;10.52;1.60;;;10.90;83.10;;;;;;5091396;28;20112;-65
2021/03/14 12:32:39;;;;;;;5.15;0.80;;;11.00;87.50;;;;;;5089728;28;20119;-65
2021/03/14 12:35:05;;;;;;;5.30;1.50;;;11.20;87.60;;;;;;5093926;28;20036;-65
2021/03/14 12:37:31;;;;;;;8.40;1.40;;;11.20;87.60;;;;;;5091945;28;20082;-65
2021/03/14 12:39:57;;;;;;;9.98;1.02;;;11.20;84.90;;;;;;5092776;28;20032;-65
2021/03/14 12:42:22;;;;;;;8.15;1.35;;;10.90;82.00;;;;;;5091830;28;20036;-65
2021/03/14 12:44:48;;;;;;;6.22;1.10;;;10.80;83.30;;;;;;5093631;28;20126;-65
2021/03/14 12:47:14;;;;;;;5.88;1.17;;;10.70;86.00;;;;;;5091074;28;20059;-65
2021/03/14 12:49:39;;;;;;;7.15;0.82;;;10.30;86.10;;;;;;5094161;28;20086;-65
2021/03/14 12:52:05;;;;;;;9.85;1.00;;;10.20;88.50;;;;;;5071807;28;20159;-65
2021/03/14 12:54:31;;;;;;;9.77;1.40;;;10.20;88.90;;;;;;5073724;28;20763;-65
2021/03/14 12:56:56;;;;;;;10.82;1.35;;;10.20;90.80;;;;;;5088063;28;20424;-65
2021/03/14 12:59:22;;;;;;;11.55;1.83;;;10.30;90.50;;;;;;5091488;28;20044;-65